Time;durP1;ratioP1;P1;durP2;ratioP2;P2;SDS_P1;SDS_P2;PMS_P1;PMS_P2;Temp;Humidity;BMP_temperature;BMP_pressure;BME280_temperature;BME280_humidity;BME280_pressure;Samples;Min_cycle;Max_cycle;Signal;HPM_P1;HPM_P2
2022/08/06 00:08:05;;;;;;;0.70;0.50;;;;;;;19.31;84.79;102179.19;21056150;28;20044;-77
2022/08/06 00:18:07;;;;;;;0.57;0.47;;;;;;;19.23;84.86;102169.00;21053680;28;20048;-77
2022/08/06 00:28:09;;;;;;;0.95;0.50;;;;;;;19.20;84.72;102170.06;21054572;28;20131;-77
2022/08/06 00:38:12;;;;;;;0.50;0.35;;;;;;;19.27;84.48;102192.09;21030464;28;20500;-77
2022/08/06 00:48:15;;;;;;;1.52;0.60;;;;;;;19.26;84.33;102204.72;21052879;28;20074;-77
2022/08/06 00:58:37;;;;;;;0.55;0.43;;;;;;;19.26;84.29;102214.66;21052882;28;20044;-77
2022/08/06 01:08:42;;;;;;;0.30;0.30;;;;;;;19.16;84.28;102217.16;21049232;28;20044;-77
2022/08/06 01:19:03;;;;;;;0.77;0.50;;;;;;;19.25;84.00;102239.94;21050945;28;20130;-77
2022/08/06 01:29:36;;;;;;;0.40;0.40;;;;;;;19.11;83.75;102224.75;21036849;28;20098;-77
2022/08/06 01:39:41;;;;;;;0.90;0.35;;;;;;;19.23;83.58;102253.53;20864850;28;20132;-77
2022/08/06 01:50:06;;;;;;;0.70;0.50;;;;;;;19.22;83.55;102256.34;20894466;28;20593;-77
2022/08/06 02:00:08;;;;;;;0.65;0.40;;;;;;;19.19;83.29;102262.84;20863062;28;20049;-77
2022/08/06 02:10:14;;;;;;;1.27;0.40;;;;;;;19.21;83.46;102273.50;20878906;28;20052;-77
2022/08/06 02:20:19;;;;;;;0.50;0.50;;;;;;;19.19;83.13;102273.63;20894017;28;20067;-77
2022/08/06 02:30:41;;;;;;;0.40;0.40;;;;;;;19.19;83.04;102284.44;20954217;28;20048;-77
2022/08/06 02:40:47;;;;;;;0.68;0.50;;;;;;;19.10;82.89;102271.59;21026260;28;20036;-77
2022/08/06 02:50:50;;;;;;;0.57;0.52;;;;;;;19.18;82.87;102296.22;21042413;28;20393;-77
2022/08/06 03:00:52;;;;;;;0.40;0.40;;;;;;;19.17;82.42;102297.19;21042096;28;20109;-77
2022/08/06 03:10:56;;;;;;;0.63;0.40;;;;;;;19.16;82.31;102295.47;21024992;28;20054;-77
2022/08/06 03:21:00;;;;;;;1.70;0.70;;;;;;;19.16;82.50;102306.25;20953872;28;20106;-77
2022/08/06 03:31:04;;;;;;;3.03;0.60;;;;;;;19.17;80.99;102307.09;20930724;28;20128;-78
2022/08/06 03:41:06;;;;;;;1.10;0.53;;;;;;;19.19;80.34;102308.72;20959068;28;20052;-78
2022/08/06 03:51:15;;;;;;;1.08;0.70;;;;;;;19.20;80.23;102310.47;20971888;28;20060;-78
2022/08/06 04:01:21;;;;;;;0.60;0.60;;;;;;;19.03;79.97;102286.53;20974085;28;20040;-78
2022/08/06 04:11:24;;;;;;;0.60;0.50;;;;;;;19.21;79.72;102317.59;20971257;28;20111;-78
2022/08/06 04:21:46;;;;;;;2.78;0.82;;;;;;;18.89;79.45;102272.13;20970714;28;20052;-78
2022/08/06 04:32:09;;;;;;;0.68;0.50;;;;;;;19.22;79.14;102338.22;21020015;28;20048;-78
2022/08/06 04:42:21;;;;;;;1.50;0.70;;;;;;;19.23;78.69;102350.72;21051728;28;20580;-78
2022/08/06 04:52:27;;;;;;;0.60;0.60;;;;;;;18.74;78.36;102289.41;21018593;28;20052;-78
2022/08/06 05:02:46;;;;;;;0.57;0.50;;;;;;;18.76;78.55;102293.72;20936541;28;20485;-78
2022/08/06 05:12:56;;;;;;;0.70;0.70;;;;;;;19.22;78.33;102386.81;20898229;28;20037;-78
2022/08/06 05:23:02;;;;;;;1.13;0.60;;;;;;;19.22;77.83;102397.59;20946793;28;20055;-78
2022/08/06 05:33:09;;;;;;;0.60;0.60;;;;;;;19.22;78.03;102404.81;20935650;28;20044;-78
2022/08/06 05:43:16;;;;;;;0.65;0.50;;;;;;;19.22;77.96;102413.81;20927939;28;20403;-78
2022/08/06 05:53:25;;;;;;;1.23;1.00;;;;;;;19.21;78.56;102406.69;20937870;28;20048;-77
2022/08/06 06:03:47;;;;;;;0.60;0.60;;;;;;;19.22;78.66;102407.53;20926086;28;20048;-77
2022/08/06 06:13:50;;;;;;;2.17;0.63;;;;;;;19.22;78.73;102403.00;20958822;28;20048;-77
2022/08/06 06:24:06;;;;;;;1.00;0.50;;;;;;;19.22;78.41;102419.19;20979648;28;20127;-77
2022/08/06 06:34:18;;;;;;;0.60;0.60;;;;;;;19.21;78.62;102428.28;21045144;28;20048;-77
2022/08/06 06:44:35;;;;;;;1.40;0.43;;;;;;;19.15;78.90;102427.81;20996188;28;20063;-77
2022/08/06 06:55:09;;;;;;;0.60;0.40;;;;;;;19.12;79.03;102427.06;20919402;28;20463;-77
2022/08/06 07:05:20;;;;;;;1.38;0.50;;;;;;;19.22;79.10;102456.13;20938482;28;20044;-77
2022/08/06 07:15:42;;;;;;;0.50;0.40;;;;;;;19.24;79.33;102456.91;20908143;28;20056;-76
2022/08/06 07:25:54;;;;;;;1.85;0.80;;;;;;;19.13;81.32;102447.69;20889052;28;20092;-78
2022/08/06 07:35:57;;;;;;;1.77;0.60;;;;;;;19.32;82.80;102468.03;20878623;28;20056;-77
2022/08/06 07:46:06;;;;;;;1.83;0.50;;;;;;;19.30;83.15;102459.19;20904616;28;20067;-77
2022/08/06 07:56:08;;;;;;;2.60;0.68;;;;;;;18.99;82.92;102416.25;20912882;28;20045;-77
2022/08/06 08:06:22;;;;;;;0.80;0.60;;;;;;;19.31;82.92;102468.13;20918198;28;20049;-77
2022/08/06 08:16:26;;;;;;;1.95;0.88;;;;;;;19.32;82.56;102494.16;20884188;28;20053;-77
2022/08/06 08:26:33;;;;;;;1.88;0.60;;;;;;;19.10;82.43;102460.56;20968457;28;20057;-77
2022/08/06 08:36:54;;;;;;;1.00;0.40;;;;;;;19.30;82.27;102471.78;20897355;28;20053;-76
2022/08/06 08:47:01;;;;;;;0.70;0.70;;;;;;;18.73;81.80;102384.81;20919850;28;20090;-76
2022/08/06 08:57:13;;;;;;;1.38;0.50;;;;;;;19.31;81.77;102503.22;20903755;28;20048;-78
2022/08/06 09:07:35;;;;;;;0.55;0.40;;;;;;;19.11;81.43;102465.84;20902693;28;20040;-78
2022/08/06 09:17:37;;;;;;;1.48;0.50;;;;;;;19.31;80.99;102501.41;20902718;28;20523;-78
2022/08/06 09:27:59;;;;;;;0.93;0.55;;;;;;;19.34;80.80;102503.00;20894706;28;20062;-79
2022/08/06 09:38:04;;;;;;;0.55;0.45;;;;;;;19.34;80.77;102511.13;20902484;28;20068;-80
2022/08/06 09:48:08;;;;;;;0.60;0.50;;;;;;;19.36;80.75;102506.47;20901777;28;20472;-82
2022/08/06 09:58:35;;;;;;;1.98;0.40;;;;;;;19.34;81.05;102524.63;20901927;28;20044;-82
2022/08/06 10:08:39;;;;;;;0.60;0.40;;;;;;;19.32;81.06;102518.47;20900384;28;20053;-82
2022/08/06 10:18:43;;;;;;;1.23;0.60;;;;;;;19.27;81.18;102492.63;20895575;28;20048;-82
2022/08/06 10:29:08;;;;;;;0.82;0.45;;;;;;;19.08;81.43;102465.22;20891915;28;20060;-84
2022/08/06 10:39:10;;;;;;;1.02;0.50;;;;;;;19.33;81.29;102507.56;20910045;28;20055;-84
2022/08/06 10:49:34;;;;;;;0.52;0.45;;;;;;;19.35;81.70;102512.84;20924825;28;20460;-84
2022/08/06 10:59:56;;;;;;;1.10;0.47;;;;;;;19.34;81.73;102503.00;20923785;28;20524;-84
2022/08/06 11:10:26;;;;;;;0.90;0.63;;;;;;;19.34;81.89;102498.50;20952357;28;20101;-83
2022/08/06 11:20:31;;;;;;;0.70;0.52;;;;;;;19.34;81.61;102503.00;20900304;28;20065;-83
2022/08/06 11:30:50;;;;;;;1.05;0.60;;;;;;;19.33;81.65;102512.97;20905034;28;20056;-82
2022/08/06 11:41:07;;;;;;;0.70;0.60;;;;;;;19.15;82.13;102485.41;20897944;28;20064;-81
2022/08/06 11:51:40;;;;;;;0.73;0.60;;;;;;;19.25;81.88;102496.44;20928927;28;20044;-83
2022/08/06 12:01:45;;;;;;;1.15;0.60;;;;;;;19.17;81.74;102482.56;20930338;28;21900;-82
2022/08/06 12:11:48;;;;;;;2.17;0.85;;;;;;;19.37;81.90;102508.19;20907524;28;20060;-81
2022/08/06 12:21:53;;;;;;;0.98;0.60;;;;;;;19.36;81.79;102501.06;20905024;28;20053;-81
2022/08/06 12:31:57;;;;;;;0.98;0.77;;;;;;;19.36;81.65;102501.06;20892898;28;20405;-81
2022/08/06 12:41:59;;;;;;;0.57;0.57;;;;;;;19.37;81.46;102492.88;20906008;28;20500;-80
2022/08/06 12:52:22;;;;;;;0.85;0.65;;;;;;;19.38;81.33;102485.63;20893512;28;20088;-82
2022/08/06 13:02:32;;;;;;;1.10;0.80;;;;;;;19.39;81.41;102496.31;20904721;28;20060;-81
2022/08/06 13:12:33;;;;;;;1.75;0.60;;;;;;;19.40;80.64;102486.38;20903416;28;20056;-80
2022/08/06 13:22:55;;;;;;;1.40;1.02;;;;;;;19.25;80.37;102462.19;20882176;28;20649;-79
2022/08/06 13:33:17;;;;;;;1.83;0.90;;;;;;;19.34;80.39;102462.50;20909601;28;20041;-78
2022/08/06 13:43:19;;;;;;;0.77;0.60;;;;;;;19.25;80.34;102450.53;20887939;28;20050;-80
2022/08/06 13:53:41;;;;;;;1.00;0.77;;;;;;;19.39;80.53;102469.31;20892526;28;20063;-79
2022/08/06 14:03:49;;;;;;;2.70;0.93;;;;;;;19.35;80.34;102456.13;20885684;28;20078;-80
2022/08/06 14:13:51;;;;;;;2.47;0.90;;;;;;;19.39;80.40;102463.03;20896704;28;20044;-80
2022/08/06 14:23:54;;;;;;;1.75;0.75;;;;;;;19.38;80.27;102464.91;20875428;28;20047;-80
2022/08/06 14:34:06;;;;;;;1.75;0.90;;;;;;;19.37;80.32;102465.88;20892667;28;20693;-80
2022/08/06 14:54:32;;;;;;;1.50;0.98;;;;;;;19.37;80.09;102440.69;20881450;28;20497;-80
2022/08/06 15:04:33;;;;;;;1.52;0.90;;;;;;;19.38;80.23;102437.00;20852448;28;20057;-79
2022/08/06 15:14:35;;;;;;;2.22;1.27;;;;;;;19.38;80.45;102435.19;20874770;28;20052;-80
2022/08/06 15:24:38;;;;;;;1.88;1.25;;;;;;;19.39;80.72;102422.53;20902679;28;20395;-78
2022/08/06 15:34:43;;;;;;;2.50;1.20;;;;;;;19.40;80.76;102421.56;20926785;28;20045;-78
2022/08/06 15:44:53;;;;;;;2.00;1.27;;;;;;;19.23;80.76;102388.53;20902678;28;20055;-80
2022/08/06 15:54:55;;;;;;;2.70;1.42;;;;;;;19.40;80.79;102410.75;20908303;28;20073;-80
2022/08/06 16:04:56;;;;;;;3.42;1.70;;;;;;;19.39;81.11;102406.31;20912883;28;20746;-81
2022/08/06 16:15:05;;;;;;;4.85;1.90;;;;;;;19.23;81.24;102377.72;20903874;28;20566;-81
2022/08/06 16:25:10;;;;;;;3.03;1.80;;;;;;;19.38;81.29;102405.47;20896678;28;20056;-85
2022/08/06 16:35:12;;;;;;;8.50;2.28;;;;;;;19.44;82.09;102403.31;20923589;28;20520;-80
2022/08/06 16:45:16;;;;;;;14.65;3.65;;;;;;;19.52;90.54;102396.41;20913865;28;20128;-80
2022/08/06 16:55:19;;;;;;;7.13;2.60;;;;;;;19.60;97.17;102389.56;20907828;28;20044;-81
2022/08/06 17:05:24;;;;;;;4.32;2.10;;;;;;;19.62;91.93;102401.13;20927433;28;20136;-80
2022/08/06 17:15:46;;;;;;;5.75;1.90;;;;;;;19.54;89.20;102375.53;20918074;28;20048;-80
2022/08/06 17:26:08;;;;;;;6.65;2.10;;;;;;;19.57;87.83;102382.53;20923416;28;20589;-81
2022/08/06 17:36:29;;;;;;;4.15;2.58;;;;;;;19.65;87.05;102409.00;20919016;28;20425;-80
2022/08/06 17:46:51;;;;;;;2.50;1.92;;;;;;;19.39;85.95;102371.22;20916357;28;20057;-80
2022/08/06 17:56:55;;;;;;;3.50;1.98;;;;;;;19.64;85.34;102412.69;20896447;28;20053;-80
2022/08/06 18:06:58;;;;;;;2.83;2.53;;;;;;;19.63;84.89;102427.16;20898549;28;20052;-77
2022/08/06 18:17:11;;;;;;;4.05;2.15;;;;;;;19.53;84.30;102411.63;20908247;28;20045;-78
2022/08/06 18:27:32;;;;;;;3.78;1.95;;;;;;;19.59;83.99;102426.50;20960021;28;20504;-78
2022/08/06 18:37:54;;;;;;;2.63;2.00;;;;;;;19.56;83.81;102433.00;20961267;28;20047;-78
2022/08/06 18:48:05;;;;;;;4.00;2.08;;;;;;;19.52;83.72;102434.22;20959415;28;20049;-78
2022/08/06 18:58:08;;;;;;;3.53;2.00;;;;;;;19.50;83.62;102438.84;20960052;28;20501;-78
2022/08/06 19:08:14;;;;;;;2.65;1.88;;;;;;;19.49;83.41;102452.47;20962039;28;20101;-78
2022/08/06 19:18:30;;;;;;;3.35;2.30;;;;;;;19.40;83.05;102437.75;21042622;28;20048;-78
2022/08/06 19:28:33;;;;;;;3.63;2.03;;;;;;;19.32;82.71;102432.03;21042791;28;20144;-78
2022/08/06 19:38:51;;;;;;;6.03;2.55;;;;;;;19.42;82.23;102460.13;21042677;28;20565;-78
2022/08/06 19:48:54;;;;;;;5.50;1.90;;;;;;;19.41;82.07;102459.28;21041360;28;20075;-78
2022/08/06 19:58:58;;;;;;;2.00;1.73;;;;;;;19.39;81.50;102469.31;21042006;28;20052;-78
2022/08/06 20:09:19;;;;;;;2.78;1.75;;;;;;;19.39;81.29;102480.13;21024924;28;20063;-78
2022/08/06 20:19:29;;;;;;;2.72;2.00;;;;;;;19.38;81.10;102478.41;21053877;28;20048;-78
2022/08/06 20:29:51;;;;;;;2.53;1.83;;;;;;;19.27;80.84;102468.34;21053645;28;20071;-78
2022/08/06 20:40:15;;;;;;;4.32;1.95;;;;;;;19.35;81.00;102483.13;21054809;28;20051;-78
2022/08/06 20:50:19;;;;;;;2.90;1.92;;;;;;;19.08;80.85;102440.91;21037093;28;20101;-78
2022/08/06 21:00:27;;;;;;;2.97;1.90;;;;;;;19.24;80.71;102473.97;21046543;28;20059;-78
2022/08/06 21:10:29;;;;;;;2.60;1.90;;;;;;;19.32;80.65;102478.84;21042281;28;20055;-78
2022/08/06 21:20:32;;;;;;;3.22;2.33;;;;;;;18.86;80.45;102406.41;21050057;28;20082;-78
2022/08/06 21:30:34;;;;;;;2.50;1.90;;;;;;;19.30;80.33;102471.78;21048518;28;20044;-78
2022/08/06 21:40:37;;;;;;;2.30;1.83;;;;;;;18.88;80.11;102413.41;21049706;28;20134;-78
2022/08/06 21:50:40;;;;;;;2.15;1.73;;;;;;;19.29;80.01;102476.34;21047261;28;20044;-78
2022/08/06 22:00:49;;;;;;;2.30;2.10;;;;;;;19.08;79.94;102449.00;21025058;28;20138;-77
2022/08/06 22:10:54;;;;;;;2.83;1.98;;;;;;;19.26;79.89;102469.31;21046368;28;20040;-78
2022/08/06 22:21:16;;;;;;;2.78;2.10;;;;;;;19.26;79.77;102458.50;21046566;28;20116;-77
2022/08/06 22:31:18;;;;;;;2.45;1.88;;;;;;;18.93;79.65;102397.78;21043442;28;20044;-77
2022/08/06 22:41:20;;;;;;;2.17;1.90;;;;;;;19.25;79.77;102447.84;21044601;28;20653;-78
2022/08/06 22:51:42;;;;;;;2.78;2.10;;;;;;;19.23;79.42;102447.94;21044946;28;20048;-77
2022/08/06 23:01:52;;;;;;;2.90;2.28;;;;;;;19.23;79.43;102450.63;21031166;28;20072;-78
2022/08/06 23:12:14;;;;;;;2.55;2.28;;;;;;;19.11;79.37;102433.44;21042328;28;20063;-78
2022/08/06 23:22:15;;;;;;;3.10;1.75;;;;;;;18.98;79.29;102409.13;21042520;28;20055;-78
2022/08/06 23:32:21;;;;;;;2.38;1.80;;;;;;;19.22;79.21;102445.31;21043174;28;20052;-78
2022/08/06 23:42:31;;;;;;;2.10;1.90;;;;;;;19.05;79.09;102411.44;21047992;28;20048;-77
2022/08/06 23:52:32;;;;;;;3.22;2.13;;;;;;;19.03;78.78;102395.34;21057912;28;20186;-77
